createdAt,value
2023-03-21T00:02:07.407Z,3.00
2023-03-21T00:04:54.925Z,2.83
2023-03-21T00:07:40.579Z,3.17
2023-03-21T00:10:39.069Z,2.97
2023-03-21T00:13:26.364Z,3.10
2023-03-21T00:16:18.980Z,3.38
2023-03-21T00:19:10.322Z,2.95
2023-03-21T00:22:06.975Z,2.70
2023-03-21T00:24:54.210Z,3.17
2023-03-21T00:27:56.792Z,3.35
2023-03-21T00:30:44.437Z,3.40
2023-03-21T00:33:29.816Z,3.17
2023-03-21T00:36:15.808Z,3.53
2023-03-21T00:39:04.536Z,3.60
2023-03-21T00:41:49.954Z,3.75
2023-03-21T00:44:36.800Z,3.70
2023-03-21T00:47:22.626Z,3.70
2023-03-21T00:50:12.460Z,3.53
2023-03-21T00:52:58.463Z,3.13
2023-03-21T00:55:43.373Z,2.65
2023-03-21T00:58:28.389Z,3.10
2023-03-21T01:01:13.609Z,3.67
2023-03-21T01:04:07.567Z,3.30
2023-03-21T01:06:54.301Z,3.95
2023-03-21T01:09:39.449Z,3.45
2023-03-21T01:12:24.471Z,3.25
2023-03-21T01:15:10.073Z,3.97
2023-03-21T01:17:55.107Z,3.63
2023-03-21T01:20:41.550Z,4.00
2023-03-21T01:23:28.120Z,3.92
2023-03-21T01:26:14.710Z,4.97
2023-03-21T01:29:00.101Z,7.25
2023-03-21T01:31:45.112Z,6.00
2023-03-21T01:34:30.097Z,5.18
2023-03-21T01:37:15.003Z,4.78
2023-03-21T01:39:59.992Z,3.35
2023-03-21T01:42:45.601Z,2.90
2023-03-21T01:46:07.468Z,3.73
2023-03-21T01:49:08.705Z,3.40
2023-03-21T01:52:06.505Z,3.20
2023-03-21T01:54:57.221Z,2.90
2023-03-21T01:57:58.440Z,2.97
2023-03-21T02:00:50.856Z,3.07
2023-03-21T02:03:38.277Z,2.80
2023-03-21T02:06:33.837Z,2.83
2023-03-21T02:09:23.829Z,2.50
2023-03-21T02:12:09.180Z,3.28
2023-03-21T02:14:56.126Z,2.80
2023-03-21T02:17:57.549Z,2.88
2023-03-21T02:20:57.971Z,3.13
2023-03-21T02:24:20.703Z,2.75
2023-03-21T02:27:21.778Z,2.55
2023-03-21T02:30:31.892Z,2.60
2023-03-21T02:33:27.879Z,2.50
2023-03-21T02:36:16.153Z,2.60
2023-03-21T02:39:35.826Z,2.85
2023-03-21T02:42:54.791Z,2.70
2023-03-21T02:45:57.846Z,2.67
2023-03-21T02:48:55.221Z,3.00
2023-03-21T02:51:43.233Z,3.38
2023-03-21T02:54:47.064Z,2.90
2023-03-21T02:57:42.165Z,2.42
2023-03-21T03:00:32.497Z,2.30
2023-03-21T03:03:28.108Z,2.70
2023-03-21T03:06:28.984Z,2.70
2023-03-21T03:09:32.384Z,2.30
2023-03-21T03:12:42.715Z,2.55
2023-03-21T03:15:45.625Z,2.27
2023-03-21T03:19:00.438Z,2.60
2023-03-21T03:21:59.004Z,2.42
2023-03-21T03:24:59.535Z,2.70
2023-03-21T03:27:48.724Z,2.83
2023-03-21T03:30:43.432Z,2.53
2023-03-21T03:33:38.334Z,2.70
2023-03-21T03:36:32.423Z,3.08
2023-03-21T03:39:18.490Z,2.25
2023-03-21T03:42:25.495Z,2.00
2023-03-21T03:45:12.838Z,2.77
2023-03-21T03:48:19.120Z,2.30
2023-03-21T03:51:09.167Z,2.58
2023-03-21T03:54:12.246Z,2.50
2023-03-21T03:56:57.954Z,2.63
2023-03-21T03:59:45.669Z,2.27
2023-03-21T04:02:32.193Z,2.15
2023-03-21T04:05:21.019Z,2.60
2023-03-21T04:08:06.675Z,2.60
2023-03-21T04:10:51.806Z,2.45
2023-03-21T04:13:36.966Z,2.37
2023-03-21T04:16:23.244Z,2.55
2023-03-21T04:19:07.960Z,2.65
2023-03-21T04:21:53.071Z,2.42
2023-03-21T04:24:39.429Z,2.08
2023-03-21T04:27:24.549Z,2.50
2023-03-21T04:30:12.041Z,2.30
2023-03-21T04:33:01.000Z,2.70
2023-03-21T04:35:45.968Z,2.63
2023-03-21T04:38:31.269Z,2.63
2023-03-21T04:41:16.492Z,2.27
2023-03-21T04:44:01.716Z,2.33
2023-03-21T04:46:46.974Z,2.20
2023-03-21T04:49:32.288Z,2.20
2023-03-21T04:52:17.738Z,2.42
2023-03-21T04:55:03.195Z,2.60
2023-03-21T04:57:48.294Z,2.38
2023-03-21T05:00:37.374Z,2.60
2023-03-21T05:03:23.314Z,2.53
2023-03-21T05:06:09.368Z,2.95
2023-03-21T05:09:05.167Z,2.77
2023-03-21T05:11:50.328Z,2.33
2023-03-21T05:14:35.494Z,2.75
2023-03-21T05:17:23.160Z,2.38
2023-03-21T05:20:11.511Z,2.47
2023-03-21T05:22:56.640Z,2.60
2023-03-21T05:25:41.742Z,2.35
2023-03-21T05:28:31.738Z,2.60
2023-03-21T05:31:17.946Z,2.30
2023-03-21T05:34:03.415Z,2.60
2023-03-21T05:36:48.384Z,3.10
2023-03-21T05:39:33.413Z,2.90
2023-03-21T05:42:19.364Z,3.00
2023-03-21T05:45:05.374Z,2.40
2023-03-21T05:47:50.540Z,2.30
2023-03-21T05:50:35.666Z,2.40
2023-03-21T05:53:22.857Z,2.58
2023-03-21T05:56:08.530Z,2.90
2023-03-21T05:58:53.422Z,2.88
2023-03-21T06:01:38.443Z,2.85
2023-03-21T06:04:23.267Z,2.50
2023-03-21T06:07:08.446Z,3.00
2023-03-21T06:09:53.325Z,2.97
2023-03-21T06:12:38.534Z,2.70
2023-03-21T06:15:23.450Z,3.10
2023-03-21T06:18:08.685Z,2.23
2023-03-21T06:20:54.590Z,3.20
2023-03-21T06:23:39.843Z,3.13
2023-03-21T06:26:24.729Z,2.90
2023-03-21T06:29:10.484Z,1.38
2023-03-21T06:31:55.534Z,3.03
2023-03-21T06:34:40.728Z,2.80
2023-03-21T06:37:26.709Z,2.75
2023-03-21T06:40:13.628Z,2.58
2023-03-21T06:42:58.744Z,2.40
2023-03-21T06:45:44.514Z,2.60
2023-03-21T06:48:29.509Z,3.00
2023-03-21T06:51:15.705Z,3.33
2023-03-21T06:54:01.075Z,3.75
2023-03-21T06:56:46.773Z,2.40
2023-03-21T06:59:31.617Z,2.00
2023-03-21T07:02:17.104Z,2.90
2023-03-21T07:05:02.506Z,3.10
2023-03-21T07:07:48.413Z,3.03
2023-03-21T07:10:33.324Z,3.28
2023-03-21T07:13:18.463Z,3.37
2023-03-21T07:16:03.658Z,3.35
2023-03-21T07:18:48.628Z,3.63
2023-03-21T07:21:33.444Z,3.35
2023-03-21T07:24:18.614Z,3.38
2023-03-21T07:27:03.494Z,3.53
2023-03-21T07:29:50.301Z,3.10
2023-03-21T07:32:35.357Z,3.90
2023-03-21T07:35:20.413Z,3.63
2023-03-21T07:38:05.744Z,3.17
2023-03-21T07:40:50.937Z,3.53
2023-03-21T07:43:37.167Z,3.05
2023-03-21T07:46:24.323Z,3.08
2023-03-21T07:49:09.268Z,3.60
2023-03-21T07:51:54.267Z,3.42
2023-03-21T07:54:39.307Z,3.20
2023-03-21T07:57:24.149Z,3.42
2023-03-21T08:00:10.710Z,3.63
2023-03-21T08:02:58.872Z,3.40
2023-03-21T08:05:44.847Z,3.10
2023-03-21T08:08:30.235Z,3.00
2023-03-21T08:11:15.622Z,3.58
2023-03-21T08:14:01.310Z,3.63
2023-03-21T08:16:46.096Z,2.97
2023-03-21T08:19:31.051Z,3.42
2023-03-21T08:22:16.204Z,3.13
2023-03-21T08:25:03.929Z,3.53
2023-03-21T08:27:51.326Z,3.53
2023-03-21T08:30:37.725Z,2.80
2023-03-21T08:33:22.773Z,3.70
2023-03-21T08:36:08.379Z,3.33
2023-03-21T08:38:56.879Z,3.40
2023-03-21T08:41:41.986Z,3.00
2023-03-21T08:44:27.190Z,3.15
2023-03-21T08:47:12.590Z,3.75
2023-03-21T08:49:59.265Z,3.30
2023-03-21T08:52:44.497Z,2.92
2023-03-21T08:55:30.282Z,3.10
2023-03-21T08:58:15.293Z,3.35
2023-03-21T09:01:00.238Z,3.78
2023-03-21T09:03:45.540Z,3.67
2023-03-21T09:06:30.354Z,3.58
2023-03-21T09:09:16.318Z,3.63
2023-03-21T09:12:01.473Z,3.45
2023-03-21T09:14:46.654Z,3.22
2023-03-21T09:17:32.766Z,2.80
2023-03-21T09:20:25.893Z,3.33
2023-03-21T09:23:12.102Z,3.17
2023-03-21T09:25:56.947Z,3.40
2023-03-21T09:28:42.706Z,3.65
2023-03-21T09:31:28.516Z,3.67
2023-03-21T09:34:15.197Z,3.60
2023-03-21T09:37:00.681Z,3.60
2023-03-21T09:39:45.909Z,3.15
2023-03-21T09:42:44.807Z,3.10
2023-03-21T09:45:39.585Z,3.20
2023-03-21T09:48:39.583Z,3.45
2023-03-21T09:51:34.780Z,2.58
2023-03-21T09:54:27.984Z,3.30
2023-03-21T09:57:27.124Z,3.38
2023-03-21T10:00:20.472Z,3.40
2023-03-21T10:03:19.988Z,2.88
2023-03-21T10:06:13.036Z,2.92
2023-03-21T10:09:16.706Z,3.03
2023-03-21T10:12:08.251Z,2.63
2023-03-21T10:14:57.960Z,2.57
2023-03-21T10:17:47.569Z,2.97
2023-03-21T10:20:34.812Z,2.80
2023-03-21T10:23:22.491Z,2.85
2023-03-21T10:26:08.049Z,2.60
2023-03-21T10:28:56.006Z,3.10
2023-03-21T10:31:42.632Z,2.90
2023-03-21T10:34:34.352Z,2.65
2023-03-21T10:37:19.453Z,2.63
2023-03-21T10:40:07.510Z,2.47
2023-03-21T10:42:56.888Z,2.77
2023-03-21T10:45:41.898Z,3.22
2023-03-21T10:48:26.590Z,2.97
2023-03-21T10:51:18.167Z,4.00
2023-03-21T10:54:11.463Z,3.63
2023-03-21T10:57:11.871Z,3.37
2023-03-21T11:00:01.645Z,3.50
2023-03-21T11:02:53.091Z,4.13
2023-03-21T11:05:41.668Z,3.80
2023-03-21T11:08:29.597Z,3.08
2023-03-21T11:11:32.414Z,3.27
2023-03-21T11:14:27.910Z,3.30
2023-03-21T11:17:24.728Z,4.32
2023-03-21T11:20:18.941Z,4.22
2023-03-21T11:23:06.490Z,3.63
2023-03-21T11:25:54.787Z,3.70
2023-03-21T11:28:41.857Z,2.75
2023-03-21T11:31:40.309Z,3.10
2023-03-21T11:34:35.196Z,3.78
2023-03-21T11:37:34.320Z,3.17
2023-03-21T11:40:32.397Z,3.60
2023-03-21T11:43:20.257Z,3.25
2023-03-21T11:46:09.303Z,4.07
2023-03-21T11:48:58.329Z,3.35
2023-03-21T11:51:52.573Z,3.83
2023-03-21T11:55:02.164Z,0.90
2023-03-21T11:58:14.899Z,3.95
2023-03-21T12:01:07.259Z,3.45
2023-03-21T12:04:15.002Z,3.65
2023-03-21T12:07:23.038Z,4.03
2023-03-21T12:10:26.470Z,3.63
2023-03-21T12:13:26.450Z,4.60
2023-03-21T12:16:44.957Z,4.13
2023-03-21T12:19:51.278Z,3.85
2023-03-21T12:22:48.009Z,3.63
2023-03-21T12:25:41.357Z,3.73
2023-03-21T12:29:03.918Z,4.15
2023-03-21T12:32:12.644Z,4.07
2023-03-21T12:35:31.217Z,3.55
2023-03-21T12:38:22.518Z,4.22
2023-03-21T12:41:25.393Z,3.33
2023-03-21T12:44:15.292Z,3.63
2023-03-21T12:47:07.420Z,6.38
2023-03-21T12:49:56.744Z,5.15
2023-03-21T12:52:49.850Z,5.85
2023-03-21T12:55:35.857Z,5.60
2023-03-21T12:58:24.512Z,4.78
2023-03-21T13:01:11.913Z,4.05
2023-03-21T13:04:24.417Z,3.92
2023-03-21T13:07:14.557Z,3.42
2023-03-21T13:10:02.007Z,2.73
2023-03-21T13:13:10.031Z,2.85
2023-03-21T13:16:03.640Z,2.08
2023-03-21T13:18:57.034Z,2.33
2023-03-21T13:22:08.762Z,2.47
2023-03-21T13:25:16.467Z,2.77
2023-03-21T13:28:06.473Z,2.53
2023-03-21T13:30:51.812Z,3.33
2023-03-21T13:33:37.879Z,2.20
2023-03-21T13:36:26.427Z,2.65
2023-03-21T13:39:24.001Z,2.13
2023-03-21T13:42:25.315Z,2.80
2023-03-21T13:45:26.322Z,3.08
2023-03-21T13:48:33.453Z,2.83
2023-03-21T13:51:27.811Z,2.60
2023-03-21T13:54:23.959Z,2.87
2023-03-21T13:57:26.566Z,2.88
2023-03-21T14:00:30.193Z,2.92
2023-03-21T14:03:17.989Z,2.30
2023-03-21T14:06:03.335Z,3.05
2023-03-21T14:08:49.276Z,2.43
2023-03-21T14:11:36.930Z,3.10
2023-03-21T14:14:31.953Z,3.03
2023-03-21T14:17:29.760Z,2.65
2023-03-21T14:20:30.532Z,3.03
2023-03-21T14:23:21.896Z,3.30
2023-03-21T14:26:09.541Z,2.95
2023-03-21T14:28:56.409Z,2.70
2023-03-21T14:31:41.723Z,2.85
2023-03-21T14:34:31.949Z,2.92
2023-03-21T14:37:41.024Z,3.03
2023-03-21T14:40:28.306Z,2.60
2023-03-21T14:43:15.632Z,2.97
2023-03-21T14:46:01.121Z,2.60
2023-03-21T14:48:46.177Z,2.25
2023-03-21T14:51:31.687Z,2.63
2023-03-21T14:54:18.284Z,3.22
2023-03-21T14:57:10.562Z,2.67
2023-03-21T14:59:59.419Z,4.10
2023-03-21T15:02:48.773Z,3.72
2023-03-21T15:05:39.321Z,2.60
2023-03-21T15:08:29.110Z,2.30
2023-03-21T15:11:17.490Z,2.38
2023-03-21T15:14:11.687Z,1.80
2023-03-21T15:16:58.593Z,2.35
2023-03-21T15:19:48.393Z,2.10
2023-03-21T15:22:38.927Z,2.15
2023-03-21T15:25:34.270Z,2.20
2023-03-21T15:28:21.490Z,1.90
2023-03-21T15:31:16.102Z,2.10
2023-03-21T15:34:01.700Z,1.97
2023-03-21T15:36:48.997Z,1.80
2023-03-21T15:39:36.498Z,1.90
2023-03-21T15:42:27.325Z,2.10
2023-03-21T15:45:27.785Z,1.90
2023-03-21T15:48:14.538Z,1.80
2023-03-21T15:51:05.214Z,1.88
2023-03-21T15:53:56.075Z,1.55
2023-03-21T15:56:45.773Z,2.17
2023-03-21T15:59:36.776Z,2.03
2023-03-21T16:02:24.927Z,1.70
2023-03-21T16:05:31.736Z,2.20
2023-03-21T16:08:26.273Z,2.17
2023-03-21T16:11:24.960Z,1.40
2023-03-21T16:14:10.605Z,1.67
2023-03-21T16:16:57.278Z,1.23
2023-03-21T16:19:49.656Z,1.23
2023-03-21T16:22:35.780Z,2.20
2023-03-21T16:25:21.701Z,1.73
2023-03-21T16:28:14.535Z,1.40
2023-03-21T16:31:02.289Z,1.93
2023-03-21T16:33:48.661Z,1.27
2023-03-21T16:36:36.983Z,1.90
2023-03-21T16:39:26.827Z,1.75
2023-03-21T16:42:12.879Z,2.08
2023-03-21T16:44:57.774Z,1.80
2023-03-21T16:47:45.176Z,2.15
2023-03-21T16:50:43.501Z,1.77
2023-03-21T16:53:28.581Z,1.58
2023-03-21T16:56:30.574Z,1.75
2023-03-21T16:59:16.604Z,1.60
2023-03-21T17:02:02.660Z,1.65
2023-03-21T17:04:47.544Z,2.08
2023-03-21T17:07:32.703Z,1.58
2023-03-21T17:10:21.957Z,1.67
2023-03-21T17:13:07.319Z,1.20
2023-03-21T17:15:54.784Z,1.63
2023-03-21T17:18:39.548Z,1.60
2023-03-21T17:21:26.952Z,1.23
2023-03-21T17:24:12.743Z,1.40
2023-03-21T17:26:57.798Z,1.03
2023-03-21T17:29:42.860Z,1.25
2023-03-21T17:32:27.685Z,1.70
2023-03-21T17:35:12.994Z,1.20
2023-03-21T17:38:01.622Z,1.55
2023-03-21T17:40:50.554Z,1.50
2023-03-21T17:43:35.726Z,1.15
2023-03-21T17:46:22.306Z,1.50
2023-03-21T17:49:09.961Z,1.40
2023-03-21T17:51:55.689Z,1.23
2023-03-21T17:54:45.458Z,1.53
2023-03-21T17:57:30.507Z,1.05
2023-03-21T18:00:25.034Z,1.83
2023-03-21T18:03:09.929Z,1.65
2023-03-21T18:05:54.780Z,1.55
2023-03-21T18:08:42.345Z,1.40
2023-03-21T18:11:27.663Z,1.65
2023-03-21T18:14:19.070Z,1.52
2023-03-21T18:17:07.609Z,1.58
2023-03-21T18:19:53.856Z,1.90
2023-03-21T18:22:41.607Z,1.70
2023-03-21T18:25:29.558Z,1.90
2023-03-21T18:28:19.423Z,1.60
2023-03-21T18:31:18.395Z,1.60
2023-03-21T18:34:04.385Z,1.60
2023-03-21T18:36:49.754Z,1.70
2023-03-21T18:39:36.198Z,1.80
2023-03-21T18:42:23.570Z,1.88
2023-03-21T18:45:13.798Z,1.70
2023-03-21T18:48:00.395Z,1.52
2023-03-21T18:50:45.836Z,1.70
2023-03-21T18:53:34.073Z,1.65
2023-03-21T18:57:16.654Z,1.50
2023-03-21T18:59:26.547Z,1.50
2023-03-21T19:02:16.296Z,1.67
2023-03-21T19:05:02.469Z,1.57
2023-03-21T19:07:48.426Z,1.63
2023-03-21T19:10:37.077Z,1.38
2023-03-21T19:13:22.280Z,1.77
2023-03-21T19:16:11.111Z,1.13
2023-03-21T19:18:57.444Z,1.30
2023-03-21T19:21:43.127Z,1.83
2023-03-21T19:24:29.414Z,1.77
2023-03-21T19:27:14.670Z,1.63
2023-03-21T19:30:13.497Z,1.52
2023-03-21T19:33:02.086Z,1.83
2023-03-21T19:35:48.656Z,1.83
2023-03-21T19:38:36.999Z,1.10
2023-03-21T19:41:22.089Z,1.90
2023-03-21T19:44:07.002Z,1.50
2023-03-21T19:46:58.352Z,1.53
2023-03-21T19:50:30.712Z,1.92
2023-03-21T19:52:54.561Z,2.08
2023-03-21T19:55:42.473Z,2.05
2023-03-21T19:58:27.316Z,1.80
2023-03-21T20:01:12.704Z,1.73
2023-03-21T20:03:58.648Z,1.10
2023-03-21T20:06:43.825Z,1.92
2023-03-21T20:09:50.513Z,1.80
2023-03-21T20:12:39.634Z,1.25
2023-03-21T20:15:33.343Z,2.27
2023-03-21T20:18:27.328Z,1.83
2023-03-21T20:21:17.595Z,1.88
2023-03-21T20:31:56.273Z,2.00
2023-03-21T20:36:02.846Z,2.08
2023-03-21T20:42:55.462Z,2.22
2023-03-21T20:45:45.376Z,2.47
2023-03-21T20:50:01.817Z,1.77
2023-03-21T20:53:04.873Z,2.55
2023-03-21T20:56:05.028Z,2.55
2023-03-21T20:59:05.029Z,2.42
2023-03-21T21:01:57.478Z,2.20
2023-03-21T21:05:03.580Z,2.50
2023-03-21T21:07:48.814Z,2.10
2023-03-21T21:10:35.069Z,2.17
2023-03-21T21:13:22.901Z,2.13
2023-03-21T21:16:08.949Z,2.35
2023-03-21T21:18:54.098Z,2.10
2023-03-21T21:21:38.858Z,2.08
2023-03-21T21:24:23.951Z,2.00
2023-03-21T21:27:16.091Z,2.75
2023-03-21T21:30:03.731Z,2.58
2023-03-21T21:32:49.225Z,2.30
2023-03-21T21:35:34.463Z,2.15
2023-03-21T21:38:19.808Z,2.40
2023-03-21T21:41:04.912Z,2.20
2023-03-21T21:43:49.982Z,2.33
2023-03-21T21:46:34.981Z,1.90
2023-03-21T21:49:19.661Z,2.10
2023-03-21T21:52:05.344Z,1.98
2023-03-21T21:54:50.470Z,3.00
2023-03-21T21:57:35.586Z,2.70
2023-03-21T22:00:24.586Z,2.10
2023-03-21T22:03:10.657Z,2.08
2023-03-21T22:06:01.901Z,2.15
2023-03-21T22:08:51.641Z,2.00
2023-03-21T22:11:47.284Z,1.17
2023-03-21T22:14:35.394Z,2.17
2023-03-21T22:17:22.559Z,1.90
2023-03-21T22:20:14.741Z,2.22
2023-03-21T22:23:00.734Z,1.55
2023-03-21T22:25:59.756Z,2.45
2023-03-21T22:28:47.881Z,1.90
2023-03-21T22:31:32.787Z,2.28
2023-03-21T22:34:17.770Z,2.28
2023-03-21T22:37:02.673Z,2.15
2023-03-21T22:39:50.088Z,2.35
2023-03-21T22:42:36.355Z,1.97
2023-03-21T22:45:21.275Z,2.30
2023-03-21T22:48:06.283Z,2.40
2023-03-21T22:50:51.008Z,2.38
2023-03-21T22:53:36.290Z,2.17
2023-03-21T22:56:21.323Z,2.27
2023-03-21T22:59:06.254Z,2.60
2023-03-21T23:01:51.558Z,2.70
2023-03-21T23:04:36.859Z,2.53
2023-03-21T23:07:21.740Z,2.40
2023-03-21T23:10:07.918Z,2.50
2023-03-21T23:12:52.914Z,2.75
2023-03-21T23:15:40.888Z,2.60
2023-03-21T23:18:25.968Z,2.85
2023-03-21T23:21:12.955Z,2.80
2023-03-21T23:24:14.097Z,2.33
2023-03-21T23:27:02.835Z,2.42
2023-03-21T23:29:51.401Z,3.40
2023-03-21T23:32:36.757Z,2.80
2023-03-21T23:35:27.645Z,3.15
2023-03-21T23:38:12.486Z,3.20
2023-03-21T23:40:59.959Z,3.58
2023-03-21T23:43:46.548Z,3.53
2023-03-21T23:46:33.346Z,2.90
2023-03-21T23:49:24.551Z,3.50
2023-03-21T23:52:09.940Z,2.93
2023-03-21T23:54:55.282Z,2.92
2023-03-21T23:57:41.706Z,3.40
